Time;durP1;ratioP1;P1;durP2;ratioP2;P2;SDS_P1;SDS_P2;PMS_P1;PMS_P2;Temp;Humidity;BMP_temperature;BMP_pressure;BME280_temperature;BME280_humidity;BME280_pressure;Samples;Min_cycle;Max_cycle;Signal;HPM_P1;HPM_P2
2022/11/13 00:02:23;;;;;;;72.18;16.33;;;5.70;99.90;;;;;;5052783;28;20033;-52
2022/11/13 00:04:48;;;;;;;151.73;17.38;;;5.80;99.90;;;;;;5053106;28;20025;-50
2022/11/13 00:07:14;;;;;;;140.93;16.55;;;5.80;99.90;;;;;;5053305;28;20550;-54
2022/11/13 00:09:39;;;;;;;102.60;17.80;;;5.70;99.90;;;;;;5053149;28;20051;-50
2022/11/13 00:12:05;;;;;;;128.77;16.73;;;5.70;99.90;;;;;;5052529;28;20112;-53
2022/11/13 00:14:30;;;;;;;184.00;17.83;;;5.70;99.90;;;;;;5053769;28;20029;-51
2022/11/13 00:16:56;;;;;;;89.45;15.57;;;5.70;99.90;;;;;;5052967;28;20067;-51
2022/11/13 00:19:21;;;;;;;179.60;17.40;;;5.70;99.90;;;;;;5052985;28;20021;-55
2022/11/13 00:21:47;;;;;;;99.05;16.40;;;5.60;99.90;;;;;;5052780;28;20028;-48
2022/11/13 00:24:12;;;;;;;81.90;14.45;;;5.60;99.90;;;;;;5052714;28;20035;-49
2022/11/13 00:26:38;;;;;;;78.70;15.10;;;5.60;99.90;;;;;;5053144;28;20397;-52
2022/11/13 00:29:04;;;;;;;49.65;14.63;;;5.60;99.90;;;;;;5052940;28;20100;-52
2022/11/13 00:31:30;;;;;;;34.03;13.77;;;5.60;99.90;;;;;;5051615;28;20485;-49
2022/11/13 00:33:57;;;;;;;45.80;13.90;;;5.60;99.90;;;;;;5051017;28;20029;-49
2022/11/13 00:36:25;;;;;;;40.45;13.57;;;5.70;99.90;;;;;;5050772;28;20035;-52
2022/11/13 00:38:51;;;;;;;89.28;13.65;;;5.70;99.90;;;;;;5053104;28;20025;-57
2022/11/13 00:41:17;;;;;;;57.97;15.23;;;5.70;99.90;;;;;;5053083;28;20025;-52
2022/11/13 00:43:42;;;;;;;76.05;14.75;;;5.70;99.90;;;;;;5052434;28;20036;-57
2022/11/13 00:46:08;;;;;;;66.32;13.57;;;5.70;99.90;;;;;;5052489;28;20420;-54
2022/11/13 00:48:35;;;;;;;62.92;13.88;;;5.60;99.90;;;;;;5051210;28;20114;-52
2022/11/13 00:51:01;;;;;;;65.70;13.73;;;5.50;99.90;;;;;;5052942;28;20079;-48
2022/11/13 00:53:26;;;;;;;73.22;13.82;;;5.40;99.90;;;;;;5051925;28;20122;-50
2022/11/13 00:55:52;;;;;;;74.28;14.13;;;5.40;99.90;;;;;;5052807;28;20029;-53
2022/11/13 00:58:18;;;;;;;98.95;15.02;;;5.40;99.90;;;;;;5052763;28;20025;-49
2022/11/13 01:00:46;;;;;;;108.85;14.77;;;5.30;99.90;;;;;;5052335;28;20031;-53
2022/11/13 01:03:12;;;;;;;124.95;15.30;;;5.30;99.90;;;;;;5051764;28;20025;-50
2022/11/13 01:05:40;;;;;;;100.10;14.32;;;5.30;99.90;;;;;;5050864;28;20029;-49
2022/11/13 01:08:06;;;;;;;45.78;14.77;;;5.30;99.90;;;;;;5052309;28;20056;-52
2022/11/13 01:10:33;;;;;;;93.07;15.45;;;5.30;99.90;;;;;;5052161;28;20399;-52
2022/11/13 01:12:58;;;;;;;92.80;15.43;;;5.20;99.90;;;;;;5051463;28;20032;-48
2022/11/13 01:15:25;;;;;;;91.95;14.95;;;5.20;99.90;;;;;;5050846;28;20389;-54
2022/11/13 01:17:50;;;;;;;105.53;15.80;;;5.20;99.90;;;;;;5050849;28;20124;-50
2022/11/13 01:20:16;;;;;;;87.25;15.25;;;5.20;99.90;;;;;;5052386;28;20045;-54
2022/11/13 01:22:42;;;;;;;19.25;13.02;;;5.20;99.90;;;;;;5051276;28;20056;-53
2022/11/13 01:25:07;;;;;;;45.47;13.85;;;5.20;99.90;;;;;;5052144;28;20443;-52
2022/11/13 01:27:35;;;;;;;48.75;12.95;;;5.20;99.90;;;;;;5051982;28;20036;-51
2022/11/13 01:30:01;;;;;;;68.78;14.00;;;5.20;99.90;;;;;;5051735;28;20029;-50
2022/11/13 01:32:27;;;;;;;38.97;13.32;;;5.30;99.90;;;;;;5051029;28;20444;-53
2022/11/13 01:34:52;;;;;;;120.47;15.05;;;5.30;99.90;;;;;;5051993;28;20036;-49
2022/11/13 01:37:18;;;;;;;127.80;15.98;;;5.20;99.90;;;;;;5050820;28;20394;-50
2022/11/13 01:39:43;;;;;;;35.10;11.95;;;5.10;99.90;;;;;;5051742;28;20028;-50
2022/11/13 01:42:09;;;;;;;59.38;12.88;;;5.10;99.90;;;;;;5050917;28;20028;-51
2022/11/13 01:44:52;;;;;;;56.05;13.32;;;5.10;99.90;;;;;;5051770;28;20104;-54
2022/11/13 01:47:20;;;;;;;54.95;12.70;;;5.10;99.90;;;;;;5051615;28;20025;-50
2022/11/13 01:49:47;;;;;;;39.75;12.40;;;5.10;99.90;;;;;;5052041;28;20036;-51
2022/11/13 01:52:20;;;;;;;43.38;13.00;;;5.10;99.90;;;;;;5050792;28;20048;-49
2022/11/13 01:54:53;;;;;;;62.38;12.88;;;5.20;99.90;;;;;;5051658;28;20021;-50
2022/11/13 01:57:20;;;;;;;55.55;11.93;;;5.10;99.90;;;;;;5051465;28;20021;-48
2022/11/13 02:00:06;;;;;;;63.33;13.32;;;5.20;99.90;;;;;;5051644;28;20485;-54
2022/11/13 02:02:32;;;;;;;66.90;11.98;;;5.20;99.90;;;;;;5050604;28;20497;-51
2022/11/13 02:04:57;;;;;;;58.55;13.70;;;5.20;99.90;;;;;;5050198;28;20029;-49
2022/11/13 02:07:24;;;;;;;56.58;11.57;;;5.20;99.90;;;;;;5051520;28;20032;-48
2022/11/13 02:09:53;;;;;;;21.08;11.15;;;5.10;99.90;;;;;;5052137;28;20497;-48
2022/11/13 02:12:29;;;;;;;31.15;11.98;;;5.20;99.90;;;;;;5050735;28;20408;-52
2022/11/13 02:14:56;;;;;;;;;;;5.20;99.90;;;;;;5052187;28;20507;-49
2022/11/13 02:17:28;;;;;;;50.60;12.77;;;5.40;99.90;;;;;;5051589;28;19905;-52
2022/11/13 02:19:58;;;;;;;32.88;11.38;;;5.50;99.90;;;;;;5051616;28;20021;-53
2022/11/13 02:22:50;;;;;;;24.30;10.60;;;5.50;99.90;;;;;;5050928;28;20025;-50
2022/11/13 02:25:16;;;;;;;66.07;11.45;;;5.40;99.90;;;;;;5051645;28;20025;-54
2022/11/13 02:27:45;;;;;;;61.53;12.05;;;5.40;99.90;;;;;;5051239;28;20404;-50
2022/11/13 02:30:32;;;;;;;45.05;10.90;;;5.30;99.90;;;;;;5051016;28;20082;-51
2022/11/13 02:32:59;;;;;;;47.42;10.60;;;5.20;99.90;;;;;;5048858;28;20345;-52
2022/11/13 02:35:28;;;;;;;24.63;10.57;;;5.10;99.90;;;;;;5051173;28;20100;-52
2022/11/13 02:37:55;;;;;;;33.15;10.65;;;5.00;99.90;;;;;;5050565;28;20017;-52
2022/11/13 02:40:21;;;;;;;27.48;10.18;;;5.00;99.90;;;;;;5050958;28;20029;-50
2022/11/13 02:42:46;;;;;;;66.55;11.77;;;5.00;99.90;;;;;;5050259;28;20029;-52
2022/11/13 02:45:12;;;;;;;59.13;10.70;;;5.00;99.90;;;;;;5049726;28;20393;-51
2022/11/13 02:47:37;;;;;;;57.83;10.82;;;5.00;99.90;;;;;;5049690;28;20029;-52
2022/11/13 02:50:04;;;;;;;91.35;11.95;;;5.00;99.90;;;;;;5050993;28;20033;-53
2022/11/13 02:52:30;;;;;;;52.00;10.50;;;5.00;99.90;;;;;;5050067;28;20043;-51
2022/11/13 02:54:55;;;;;;;52.60;10.20;;;4.90;99.90;;;;;;5051372;28;20017;-55
2022/11/13 02:57:21;;;;;;;58.28;10.38;;;4.80;99.90;;;;;;5051328;28;20036;-51
2022/11/13 02:59:47;;;;;;;79.50;11.32;;;4.70;99.90;;;;;;5050967;28;20021;-48
2022/11/13 03:02:12;;;;;;;49.75;9.77;;;4.80;99.90;;;;;;5050278;28;20067;-51
2022/11/13 03:04:38;;;;;;;64.00;9.50;;;4.80;99.90;;;;;;5050565;28;20029;-50
2022/11/13 03:07:04;;;;;;;87.65;12.95;;;4.80;99.90;;;;;;5050736;28;20395;-55
2022/11/13 03:09:29;;;;;;;36.28;9.68;;;4.70;99.90;;;;;;5052022;28;20083;-52
2022/11/13 03:11:55;;;;;;;75.80;10.52;;;4.70;99.90;;;;;;5053905;28;20033;-52
2022/11/13 03:14:20;;;;;;;23.00;9.55;;;4.70;99.90;;;;;;5054248;28;20025;-50
2022/11/13 03:16:46;;;;;;;44.38;9.80;;;4.70;99.90;;;;;;5054159;28;20477;-49
2022/11/13 03:19:11;;;;;;;26.52;9.63;;;4.70;99.90;;;;;;5054187;28;20021;-51
2022/11/13 03:21:37;;;;;;;18.65;9.07;;;4.70;99.90;;;;;;5054243;28;20025;-49
2022/11/13 03:24:03;;;;;;;28.70;9.95;;;4.70;99.90;;;;;;5053480;28;20051;-50
2022/11/13 03:26:28;;;;;;;37.10;8.88;;;4.70;99.90;;;;;;5054270;28;20544;-55
2022/11/13 03:28:54;;;;;;;27.15;9.38;;;4.70;99.90;;;;;;5054010;28;20025;-51
2022/11/13 03:31:20;;;;;;;56.05;9.85;;;4.70;99.90;;;;;;5054126;28;20071;-52
2022/11/13 03:33:46;;;;;;;28.33;9.77;;;4.60;99.90;;;;;;5053176;28;20029;-54
2022/11/13 03:36:11;;;;;;;29.60;9.35;;;4.60;99.90;;;;;;5052860;28;20021;-55
2022/11/13 03:38:37;;;;;;;44.10;9.85;;;4.60;99.90;;;;;;5054002;28;20407;-53
2022/11/13 03:41:03;;;;;;;38.05;9.50;;;4.60;99.90;;;;;;5053944;28;20071;-53
2022/11/13 03:43:29;;;;;;;53.75;9.80;;;4.50;99.90;;;;;;5052946;28;20029;-51
2022/11/13 03:45:54;;;;;;;34.33;8.77;;;4.60;99.90;;;;;;5052558;28;20393;-51
2022/11/13 03:48:20;;;;;;;37.83;9.88;;;4.50;99.90;;;;;;5053514;28;20566;-54
2022/11/13 03:50:50;;;;;;;48.05;10.25;;;4.60;99.90;;;;;;5053860;28;20061;-52
2022/11/13 03:53:16;;;;;;;23.33;8.80;;;4.50;99.90;;;;;;5052913;28;20028;-53
2022/11/13 03:55:42;;;;;;;58.58;11.63;;;4.40;99.90;;;;;;5052294;28;20365;-51
2022/11/13 03:58:08;;;;;;;60.10;9.80;;;4.40;99.90;;;;;;5052885;28;20109;-48
2022/11/13 04:00:34;;;;;;;36.72;9.55;;;4.30;99.90;;;;;;5053476;28;20033;-55
2022/11/13 04:02:59;;;;;;;50.45;9.80;;;4.30;99.90;;;;;;5051213;28;20029;-52
2022/11/13 04:05:25;;;;;;;39.53;9.13;;;4.20;99.90;;;;;;5053488;28;20037;-52
2022/11/13 04:07:50;;;;;;;41.55;9.95;;;4.20;99.90;;;;;;5053100;28;20074;-47
2022/11/13 04:10:16;;;;;;;39.38;9.82;;;4.20;99.90;;;;;;5053224;28;20574;-52
2022/11/13 04:12:42;;;;;;;13.80;7.97;;;4.10;99.90;;;;;;5052335;28;20025;-52
2022/11/13 04:15:08;;;;;;;42.72;8.90;;;4.10;99.90;;;;;;5053188;28;20104;-50
2022/11/13 04:17:33;;;;;;;20.42;8.30;;;4.00;99.90;;;;;;5052905;28;20100;-49
2022/11/13 04:19:59;;;;;;;18.95;8.65;;;4.00;99.90;;;;;;5052604;28;20508;-48
2022/11/13 04:22:24;;;;;;;16.25;8.65;;;4.10;99.90;;;;;;5051435;28;20033;-51
2022/11/13 04:24:50;;;;;;;24.52;9.60;;;4.10;99.90;;;;;;5051033;28;20508;-51
2022/11/13 04:27:15;;;;;;;13.23;7.93;;;4.10;99.90;;;;;;5051464;28;20075;-52
2022/11/13 04:29:41;;;;;;;14.90;7.20;;;4.20;99.90;;;;;;5051886;28;20025;-50
2022/11/13 04:32:06;;;;;;;14.95;8.25;;;4.20;99.90;;;;;;5051377;28;20029;-48
2022/11/13 04:34:32;;;;;;;10.73;8.93;;;4.20;99.90;;;;;;5051472;28;20032;-53
2022/11/13 04:36:57;;;;;;;17.67;8.23;;;4.20;99.90;;;;;;5051494;28;20029;-52
2022/11/13 04:39:23;;;;;;;8.77;7.43;;;4.20;99.90;;;;;;5051327;28;20071;-52
2022/11/13 04:44:32;;;;;;;7.90;7.13;;;4.20;99.90;;;;;;5052611;28;20035;-49
2022/11/13 04:46:58;;;;;;;9.45;7.10;;;4.10;99.90;;;;;;5051377;28;20472;-49
2022/11/13 04:49:24;;;;;;;8.48;7.13;;;4.10;99.90;;;;;;5052472;28;20025;-55
2022/11/13 04:51:49;;;;;;;7.45;6.40;;;4.10;99.90;;;;;;5052167;28;20033;-49
2022/11/13 04:54:15;;;;;;;8.40;7.07;;;4.00;99.90;;;;;;5050626;28;20500;-51
2022/11/13 04:56:40;;;;;;;9.13;8.18;;;4.00;99.90;;;;;;5052605;28;20308;-47
2022/11/13 04:59:06;;;;;;;8.80;7.57;;;4.00;99.90;;;;;;5052491;28;20021;-48
2022/11/13 05:01:31;;;;;;;7.95;7.15;;;4.00;99.90;;;;;;5052397;28;20025;-50
2022/11/13 05:03:57;;;;;;;9.38;7.20;;;4.00;99.90;;;;;;5051658;28;20407;-48
2022/11/13 05:06:22;;;;;;;9.85;7.93;;;4.00;99.90;;;;;;5052567;28;20495;-49
2022/11/13 05:11:18;;;;;;;8.63;7.47;;;4.10;99.90;;;;;;5070078;22;20409;-49
2022/11/13 05:13:44;;;;;;;10.10;8.68;;;4.10;99.90;;;;;;5051522;28;20045;-49
2022/11/13 05:16:11;;;;;;;10.98;7.60;;;4.00;99.90;;;;;;5052144;28;20032;-52
2022/11/13 05:18:37;;;;;;;10.45;8.00;;;4.00;99.90;;;;;;5050604;28;20029;-43
2022/11/13 05:21:05;;;;;;;7.60;6.90;;;4.00;99.90;;;;;;5069896;28;20133;-49
2022/11/13 05:23:31;;;;;;;12.25;7.72;;;4.00;99.90;;;;;;5071010;28;20028;-55
2022/11/13 05:26:08;;;;;;;7.93;7.07;;;4.00;99.90;;;;;;5071919;28;20024;-51
2022/11/13 05:28:34;;;;;;;11.70;7.60;;;4.00;99.90;;;;;;5071838;28;20021;-51
2022/11/13 05:31:10;;;;;;;9.40;8.02;;;4.00;99.90;;;;;;5071805;28;20027;-43
2022/11/13 05:33:37;;;;;;;8.57;7.25;;;4.00;99.90;;;;;;5069676;28;20064;-50
2022/11/13 05:36:11;;;;;;;9.65;7.75;;;4.00;99.90;;;;;;5071185;28;20420;-54
2022/11/13 05:38:38;;;;;;;10.30;7.17;;;3.90;99.90;;;;;;5072216;28;20024;-55
2022/11/13 05:41:08;;;;;;;8.98;7.13;;;3.90;99.90;;;;;;5072002;28;20036;-53
2022/11/13 05:43:35;;;;;;;11.35;7.00;;;3.90;99.90;;;;;;5071219;28;20099;-46
2022/11/13 05:46:03;;;;;;;9.95;7.43;;;3.80;99.90;;;;;;5071730;28;20116;-50
2022/11/13 05:48:29;;;;;;;7.85;7.10;;;3.80;99.90;;;;;;5071491;28;20039;-51
2022/11/13 05:51:12;;;;;;;8.13;7.40;;;3.90;99.90;;;;;;5070527;28;20119;-51
2022/11/13 05:53:39;;;;;;;7.70;6.88;;;3.80;99.90;;;;;;5071103;28;20032;-49
2022/11/13 05:56:12;;;;;;;7.53;6.60;;;3.70;99.90;;;;;;5071760;28;20021;-42
2022/11/13 05:58:38;;;;;;;8.25;7.45;;;3.70;99.90;;;;;;5071674;28;20107;-43
2022/11/13 06:01:29;;;;;;;8.23;7.05;;;3.70;99.90;;;;;;5071790;28;20025;-53
2022/11/13 06:03:56;;;;;;;12.65;6.57;;;3.70;99.90;;;;;;5070699;28;20078;-53
2022/11/13 06:06:22;;;;;;;9.00;7.88;;;3.70;99.90;;;;;;5071344;28;20112;-53
2022/11/13 06:08:49;;;;;;;8.18;7.35;;;3.70;99.90;;;;;;5071474;28;20029;-50
2022/11/13 06:11:17;;;;;;;7.68;6.80;;;3.70;99.90;;;;;;5071194;28;20123;-51
2022/11/13 06:13:43;;;;;;;7.63;6.72;;;3.60;99.90;;;;;;5070577;28;20583;-51
2022/11/13 06:16:35;;;;;;;11.20;6.88;;;3.70;99.90;;;;;;5071281;28;20099;-54
2022/11/13 06:19:05;;;;;;;8.55;7.53;;;3.70;99.90;;;;;;5064772;28;20412;-53
2022/11/13 06:21:33;;;;;;;7.70;6.88;;;3.70;99.90;;;;;;5071700;28;20036;-54
2022/11/13 06:23:59;;;;;;;9.50;7.30;;;3.70;99.90;;;;;;5070577;28;20056;-46
2022/11/13 06:26:28;;;;;;;8.23;6.95;;;3.60;99.90;;;;;;5069862;28;20052;-47
2022/11/13 06:28:54;;;;;;;9.32;7.28;;;3.60;99.90;;;;;;5071292;28;20369;-43
2022/11/13 06:31:22;;;;;;;9.93;7.28;;;3.60;99.90;;;;;;5071253;28;20031;-48
2022/11/13 06:33:48;;;;;;;9.00;7.78;;;3.50;99.90;;;;;;5070324;28;20036;-51
2022/11/13 06:36:23;;;;;;;8.77;7.35;;;3.40;99.90;;;;;;5068597;28;20031;-50
2022/11/13 06:38:48;;;;;;;9.95;6.95;;;3.40;99.90;;;;;;5071163;28;20047;-47
2022/11/13 06:41:16;;;;;;;8.77;7.18;;;3.40;99.90;;;;;;5071374;28;20020;-49
2022/11/13 06:43:43;;;;;;;10.02;7.15;;;3.30;99.90;;;;;;5071142;28;20028;-52
2022/11/13 06:46:20;;;;;;;10.20;7.97;;;3.30;99.90;;;;;;5075309;28;20024;-50
2022/11/13 06:48:46;;;;;;;9.95;7.32;;;3.20;99.90;;;;;;5075359;28;20025;-48
2022/11/13 06:51:26;;;;;;;9.85;8.65;;;3.30;99.90;;;;;;5075239;28;20456;-46
2022/11/13 06:53:52;;;;;;;8.77;7.45;;;3.30;99.90;;;;;;5074389;28;20115;-42
2022/11/13 06:56:18;;;;;;;9.25;8.07;;;3.30;99.90;;;;;;5074960;28;20517;-48
2022/11/13 06:58:44;;;;;;;7.43;6.68;;;3.30;99.90;;;;;;5074955;28;20021;-48
2022/11/13 07:01:12;;;;;;;8.18;6.35;;;3.30;99.90;;;;;;5074716;28;20108;-51
2022/11/13 07:03:39;;;;;;;8.27;7.25;;;3.30;99.90;;;;;;5073806;28;20028;-46
2022/11/13 07:06:07;;;;;;;8.80;7.13;;;3.30;99.90;;;;;;5075297;28;20017;-50
2022/11/13 07:08:33;;;;;;;8.10;7.10;;;3.40;99.90;;;;;;5073547;28;20021;-54
2022/11/13 07:10:59;;;;;;;13.75;7.30;;;3.40;99.90;;;;;;5074484;28;20097;-49
2022/11/13 07:13:26;;;;;;;9.57;8.52;;;3.40;99.90;;;;;;5072199;28;20107;-48
2022/11/13 07:15:51;;;;;;;7.75;6.95;;;3.50;99.90;;;;;;5059226;28;20403;-42
2022/11/13 07:18:17;;;;;;;9.05;8.10;;;3.50;99.90;;;;;;5055323;28;20029;-48
2022/11/13 07:20:42;;;;;;;9.20;7.75;;;3.50;99.90;;;;;;5062420;28;20016;-47
2022/11/13 07:23:08;;;;;;;11.02;9.00;;;3.50;99.90;;;;;;5073904;28;20024;-49
2022/11/13 07:25:34;;;;;;;9.82;8.25;;;3.50;99.90;;;;;;5073161;28;20036;-51
2022/11/13 07:28:00;;;;;;;12.68;9.02;;;3.60;99.90;;;;;;5074737;28;20052;-50
2022/11/13 07:30:25;;;;;;;10.68;8.55;;;3.60;99.90;;;;;;5073177;28;20029;-55
2022/11/13 07:32:51;;;;;;;9.30;8.40;;;3.60;99.90;;;;;;5073392;28;20032;-49
2022/11/13 07:35:17;;;;;;;11.77;9.57;;;3.60;99.90;;;;;;5074181;28;20510;-50
2022/11/13 07:37:43;;;;;;;13.18;8.45;;;3.60;99.90;;;;;;5073888;28;20096;-46
2022/11/13 07:40:09;;;;;;;10.85;8.85;;;3.60;99.90;;;;;;5074080;28;20020;-46
2022/11/13 07:42:34;;;;;;;10.52;8.25;;;3.70;99.90;;;;;;5072220;28;20021;-46
2022/11/13 07:45:00;;;;;;;12.73;8.77;;;3.70;99.90;;;;;;5073509;28;20115;-41
2022/11/13 07:47:26;;;;;;;8.95;7.88;;;3.70;99.90;;;;;;5074499;28;20499;-48
2022/11/13 07:49:52;;;;;;;9.00;7.85;;;3.70;99.90;;;;;;5072687;28;20089;-47
2022/11/13 07:52:17;;;;;;;11.65;7.93;;;3.70;99.90;;;;;;5071835;28;20063;-51
2022/11/13 07:54:43;;;;;;;8.77;7.85;;;3.80;99.90;;;;;;5073582;28;20024;-49
2022/11/13 07:57:09;;;;;;;547.53;354.40;;;3.80;99.90;;;;;;5073658;28;20404;-47
2022/11/13 07:59:34;;;;;;;11.77;9.43;;;3.80;99.90;;;;;;5073590;28;20048;-48
2022/11/13 08:02:00;;;;;;;10.65;9.23;;;3.90;99.90;;;;;;5072905;28;20032;-47
2022/11/13 08:04:25;;;;;;;8.73;7.82;;;3.90;99.90;;;;;;5073468;28;20511;-43
2022/11/13 08:06:51;;;;;;;8.70;7.75;;;4.00;99.90;;;;;;5073414;28;20082;-47
2022/11/13 08:09:16;;;;;;;7.70;6.97;;;4.10;99.90;;;;;;5073453;28;20504;-50
2022/11/13 08:11:42;;;;;;;9.50;7.97;;;4.10;99.90;;;;;;5073350;28;20021;-48
2022/11/13 08:14:07;;;;;;;8.32;7.40;;;4.20;99.90;;;;;;5072560;28;20027;-46
2022/11/13 08:16:33;;;;;;;8.35;7.50;;;4.30;99.90;;;;;;5073519;28;20025;-49
2022/11/13 08:18:58;;;;;;;8.13;7.05;;;4.30;99.90;;;;;;5073195;28;20022;-51
2022/11/13 08:21:24;;;;;;;7.93;7.13;;;4.30;99.90;;;;;;5073046;28;20083;-47
2022/11/13 08:23:50;;;;;;;9.70;7.63;;;4.40;99.90;;;;;;5072554;28;20032;-47
2022/11/13 08:26:17;;;;;;;10.57;7.75;;;4.40;99.90;;;;;;5073098;28;20230;-50
2022/11/13 08:28:43;;;;;;;9.20;6.90;;;4.60;99.90;;;;;;5073068;28;20032;-48
2022/11/13 08:31:11;;;;;;;8.60;7.65;;;4.60;99.90;;;;;;5073121;28;20047;-42
2022/11/13 08:33:36;;;;;;;7.75;7.05;;;4.70;99.90;;;;;;5072291;28;20032;-43
2022/11/13 08:36:02;;;;;;;7.03;6.30;;;4.70;99.90;;;;;;5073082;28;20012;-48
2022/11/13 08:38:28;;;;;;;9.70;7.72;;;4.70;99.90;;;;;;5072731;28;20025;-51
2022/11/13 08:41:01;;;;;;;9.23;7.07;;;4.80;99.90;;;;;;5073134;28;20120;-42
2022/11/13 08:43:27;;;;;;;8.18;6.78;;;4.90;99.90;;;;;;5070795;28;20119;-47
2022/11/13 08:45:53;;;;;;;8.38;6.03;;;5.10;99.90;;;;;;5073203;28;20127;-47
2022/11/13 08:48:18;;;;;;;6.43;5.47;;;5.80;99.90;;;;;;5072814;28;20059;-52
2022/11/13 08:50:44;;;;;;;6.72;5.97;;;6.80;99.90;;;;;;5071009;28;20020;-46
2022/11/13 08:53:10;;;;;;;5.45;4.95;;;8.00;99.90;;;;;;5071882;28;20035;-41
2022/11/13 08:55:36;;;;;;;4.85;4.43;;;9.00;99.90;;;;;;5071309;28;20025;-45
2022/11/13 08:58:03;;;;;;;5.15;4.38;;;9.70;99.90;;;;;;5072379;28;20020;-47
2022/11/13 09:00:30;;;;;;;5.07;4.30;;;10.50;99.90;;;;;;5072645;28;20498;-49
2022/11/13 09:02:57;;;;;;;4.82;4.07;;;11.20;99.90;;;;;;5070361;28;20069;-46
2022/11/13 09:05:23;;;;;;;4.32;3.92;;;11.70;99.90;;;;;;5072516;28;20103;-46
2022/11/13 09:07:48;;;;;;;6.15;4.00;;;12.10;99.90;;;;;;5071831;28;20035;-44
2022/11/13 09:10:16;;;;;;;4.65;4.10;;;12.30;99.90;;;;;;5072290;28;20044;-46
2022/11/13 09:12:41;;;;;;;6.05;3.80;;;12.50;99.90;;;;;;5072385;28;20032;-42
2022/11/13 09:15:07;;;;;;;5.10;3.63;;;12.80;99.90;;;;;;5073468;28;20032;-45
2022/11/13 09:17:33;;;;;;;4.25;3.88;;;13.00;99.90;;;;;;5071729;28;20025;-47
2022/11/13 09:19:58;;;;;;;6.50;3.92;;;12.90;99.90;;;;;;5071934;28;20401;-40
2022/11/13 09:22:24;;;;;;;3.85;3.55;;;13.10;99.90;;;;;;5070901;28;20551;-47
2022/11/13 09:24:49;;;;;;;4.13;3.83;;;13.20;99.90;;;;;;5070726;28;20300;-47
2022/11/13 09:27:15;;;;;;;4.18;3.88;;;13.70;99.90;;;;;;5072013;28;20056;-46
2022/11/13 09:29:40;;;;;;;5.90;4.18;;;13.80;99.90;;;;;;5071967;28;20056;-49
2022/11/13 09:32:06;;;;;;;4.30;3.92;;;14.00;99.90;;;;;;5070988;28;20032;-43
2022/11/13 09:34:32;;;;;;;4.53;3.70;;;14.30;99.90;;;;;;5072140;28;20035;-46
2022/11/13 09:36:58;;;;;;;3.88;3.47;;;13.60;99.90;;;;;;5073103;28;20029;-46
2022/11/13 09:39:24;;;;;;;4.25;3.85;;;13.50;99.90;;;;;;5072345;28;20029;-48
2022/11/13 09:42:13;;;;;;;4.53;4.13;;;13.60;99.90;;;;;;5071638;28;20017;-46
2022/11/13 09:44:47;;;;;;;58.22;32.88;;;13.60;99.90;;;;;;5070538;28;20063;-47
2022/11/13 09:47:26;;;;;;;5.80;5.00;;;13.70;99.90;;;;;;5070248;28;20036;-43
2022/11/13 09:50:26;;;;;;;10.80;5.07;;;13.60;99.90;;;;;;5071798;28;20070;-49
2022/11/13 09:52:53;;;;;;;4.35;4.05;;;13.20;99.90;;;;;;5036105;28;20071;-48
2022/11/13 09:55:22;;;;;;;4.30;4.00;;;13.20;99.90;;;;;;5069903;28;20029;-48
2022/11/13 09:57:59;;;;;;;4.47;4.07;;;13.20;99.90;;;;;;5068394;28;20017;-51
2022/11/13 10:00:25;;;;;;;4.20;3.85;;;13.20;99.90;;;;;;5062228;28;20053;-43
2022/11/13 10:03:00;;;;;;;4.40;4.00;;;13.60;99.90;;;;;;5057502;28;20027;-40
2022/11/13 10:05:38;;;;;;;5.60;4.53;;;13.80;99.90;;;;;;5072410;28;20049;-41
2022/11/13 10:08:18;;;;;;;4.85;3.70;;;14.30;99.90;;;;;;5074009;28;20095;-46
2022/11/13 10:10:50;;;;;;;4.57;4.18;;;14.70;99.90;;;;;;5075995;28;20040;-42
2022/11/13 10:13:38;;;;;;;4.93;3.72;;;14.50;99.90;;;;;;5074194;28;20024;-49
2022/11/13 10:16:29;;;;;;;4.95;4.45;;;14.30;99.90;;;;;;5074762;28;20111;-48
2022/11/13 10:19:07;;;;;;;5.93;4.50;;;14.50;99.90;;;;;;5073271;28;20033;-50
2022/11/13 10:21:52;;;;;;;7.05;4.78;;;14.10;99.90;;;;;;5083792;28;20017;-49
2022/11/13 10:24:28;;;;;;;5.50;5.00;;;13.90;99.90;;;;;;5080831;28;20077;-49
2022/11/13 10:26:58;;;;;;;6.50;5.90;;;13.40;99.90;;;;;;5081739;28;20459;-45
2022/11/13 10:29:27;;;;;;;4.80;4.38;;;12.90;99.90;;;;;;5080817;28;20407;-53
2022/11/13 10:31:53;;;;;;;5.13;4.63;;;12.60;99.90;;;;;;5081572;28;20029;-42
2022/11/13 10:34:19;;;;;;;5.43;4.93;;;12.20;99.90;;;;;;5076935;28;20028;-50
2022/11/13 10:37:18;;;;;;;5.68;5.18;;;12.30;99.90;;;;;;5072806;28;20024;-47
2022/11/13 10:39:45;;;;;;;5.47;4.97;;;12.40;99.90;;;;;;5056302;28;20027;-49
2022/11/13 10:42:22;;;;;;;6.32;4.70;;;12.30;99.90;;;;;;5055395;28;20179;-47
2022/11/13 10:44:53;;;;;;;7.35;5.32;;;12.20;99.90;;;;;;5056392;28;20025;-47
2022/11/13 10:47:22;;;;;;;7.15;3.95;;;12.20;99.90;;;;;;5056129;28;20021;-45
2022/11/13 10:49:47;;;;;;;7.93;4.90;;;12.20;99.90;;;;;;5054493;28;20032;-44
2022/11/13 10:52:21;;;;;;;4.90;4.40;;;11.80;99.90;;;;;;5066546;28;20025;-46
2022/11/13 10:54:47;;;;;;;5.45;4.40;;;11.70;99.90;;;;;;5068914;28;20107;-46
2022/11/13 10:57:33;;;;;;;4.78;4.38;;;11.70;99.90;;;;;;5056267;28;20021;-51
2022/11/13 10:59:59;;;;;;;6.10;4.68;;;11.60;99.90;;;;;;5056296;28;20020;-44
2022/11/13 11:02:26;;;;;;;5.80;4.07;;;11.50;99.90;;;;;;5054850;28;20028;-45
2022/11/13 11:05:22;;;;;;;6.18;4.50;;;11.50;99.90;;;;;;5054901;28;20021;-45
2022/11/13 11:07:48;;;;;;;5.25;4.60;;;11.40;99.90;;;;;;5055064;28;20017;-47
2022/11/13 11:10:20;;;;;;;6.30;4.05;;;11.20;99.90;;;;;;5055184;28;20098;-44
2022/11/13 11:12:58;;;;;;;4.82;4.18;;;11.10;99.90;;;;;;5088443;23;20040;-50
2022/11/13 11:15:29;;;;;;;8.95;4.18;;;11.10;99.90;;;;;;5074326;28;20432;-46
2022/11/13 11:18:13;;;;;;;6.85;3.95;;;11.10;99.90;;;;;;5072819;28;20111;-48
2022/11/13 11:21:28;;;;;;;26.98;19.48;;;11.10;99.90;;;;;;5074370;28;20074;-49
2022/11/13 11:24:12;;;;;;;18.77;11.70;;;11.10;99.90;;;;;;5051567;28;20037;-48
2022/11/13 11:26:42;;;;;;;5.70;3.60;;;11.20;99.90;;;;;;5053964;28;20029;-50
2022/11/13 11:29:26;;;;;;;3.58;3.28;;;11.20;99.90;;;;;;5054110;28;20131;-47
2022/11/13 11:32:03;;;;;;;4.30;3.65;;;11.30;99.90;;;;;;5053353;28;20029;-46
2022/11/13 11:34:45;;;;;;;5.47;3.38;;;11.30;99.90;;;;;;5053914;28;20082;-48
2022/11/13 11:37:18;;;;;;;3.28;2.72;;;11.40;99.90;;;;;;5053826;28;20076;-49
2022/11/13 11:39:52;;;;;;;3.30;3.00;;;11.40;99.90;;;;;;5053799;28;20393;-46
2022/11/13 11:42:58;;;;;;;3.20;2.90;;;11.40;99.90;;;;;;5052380;28;20029;-46
2022/11/13 11:45:31;;;;;;;4.65;3.20;;;11.40;99.90;;;;;;5037846;28;20029;-45
2022/11/13 11:47:58;;;;;;;7.68;3.58;;;11.50;99.90;;;;;;5052981;28;20021;-45
2022/11/13 11:50:50;;;;;;;4.97;3.03;;;11.50;99.90;;;;;;5053964;28;20473;-43
2022/11/13 11:53:35;;;;;;;3.53;3.30;;;11.40;99.90;;;;;;5052671;28;20108;-47
2022/11/13 11:56:11;;;;;;;4.27;3.70;;;11.40;99.90;;;;;;5053372;28;20021;-44
2022/11/13 11:59:03;;;;;;;3.78;3.42;;;11.40;99.90;;;;;;5053065;28;20025;-47
2022/11/13 12:01:47;;;;;;;4.35;3.75;;;11.50;99.90;;;;;;5053220;28;20443;-50
2022/11/13 12:04:33;;;;;;;4.43;3.70;;;11.50;99.90;;;;;;5052440;28;20108;-50
2022/11/13 12:07:08;;;;;;;3.63;3.33;;;11.50;99.90;;;;;;5053002;28;20144;-48
2022/11/13 12:09:50;;;;;;;8.38;3.85;;;11.50;99.90;;;;;;5052561;28;20033;-45
2022/11/13 12:12:34;;;;;;;4.97;3.38;;;11.50;99.90;;;;;;5052024;28;20096;-45
2022/11/13 12:15:07;;;;;;;4.38;3.78;;;11.50;99.90;;;;;;5052745;28;20052;-44
2022/11/13 12:17:52;;;;;;;4.13;3.72;;;11.50;99.90;;;;;;5052246;28;20036;-47
2022/11/13 12:20:26;;;;;;;4.25;3.85;;;11.50;99.90;;;;;;5051450;28;20025;-46
2022/11/13 12:23:32;;;;;;;12.97;4.70;;;11.60;99.90;;;;;;5051965;28;20369;-47
2022/11/13 12:26:00;;;;;;;4.70;4.28;;;11.50;99.90;;;;;;5047690;28;20119;-46
2022/11/13 12:28:38;;;;;;;4.25;3.85;;;11.50;99.90;;;;;;5052028;28;20028;-45
2022/11/13 12:31:38;;;;;;;4.45;3.88;;;11.50;99.90;;;;;;5051872;28;20434;-46
2022/11/13 12:34:28;;;;;;;5.13;4.10;;;11.40;99.90;;;;;;5051733;28;20025;-47
2022/11/13 12:36:55;;;;;;;5.07;3.80;;;11.50;99.90;;;;;;5052562;28;20045;-43
2022/11/13 12:39:36;;;;;;;5.93;3.95;;;11.50;99.90;;;;;;5052725;28;20029;-45
2022/11/13 12:42:29;;;;;;;4.70;4.30;;;11.60;99.90;;;;;;5050565;28;20021;-49
2022/11/13 12:45:15;;;;;;;12.00;4.13;;;11.60;99.90;;;;;;5052484;28;20029;-47
2022/11/13 12:47:41;;;;;;;4.20;3.70;;;11.60;99.90;;;;;;5053363;28;20074;-44
2022/11/13 12:50:28;;;;;;;5.32;4.22;;;11.60;99.90;;;;;;5052620;28;20020;-45
2022/11/13 12:53:05;;;;;;;4.35;3.95;;;11.60;99.90;;;;;;5050862;28;20423;-47
2022/11/13 12:55:35;;;;;;;4.22;3.83;;;11.70;99.90;;;;;;5052933;28;20143;-47
2022/11/13 12:58:22;;;;;;;3.83;3.50;;;11.70;99.90;;;;;;5053468;28;20017;-44
2022/11/13 13:01:08;;;;;;;4.18;3.78;;;11.70;99.90;;;;;;5052864;28;20505;-42
2022/11/13 13:03:40;;;;;;;4.95;4.13;;;11.80;99.90;;;;;;5051376;28;20499;-45
2022/11/13 13:06:35;;;;;;;5.63;4.53;;;11.80;99.90;;;;;;5051667;28;20033;-46